Aviation Digital Data Service (ADDS)

Output produced by METARs form (1712 UTC 21 November 2017)
found at http://aviationweather.gov/adds/metars/
 
KCKB 211458Z 2115/2212 22010G21KT P6SM SKC 
     FM220000 22009G16KT P6SM BKN025 
     FM220500 25006KT P6SM BKN035 
     FM220800 29006KT P6SM OVC025 
     FM220900 30006KT P6SM OVC015